sensor_id;sensor_type;location;lat;lon;timestamp;P1;durP1;ratioP1;P2;durP2;ratioP2
1294;SDS011;640;48.310;11.728;2022-07-21T00:00:20;4.60;;;3.70;;
1294;SDS011;640;48.310;11.728;2022-07-21T00:02:49;8.03;;;3.90;;
1294;SDS011;640;48.310;11.728;2022-07-21T00:05:18;5.90;;;3.85;;
1294;SDS011;640;48.310;11.728;2022-07-21T00:07:47;5.53;;;3.97;;
1294;SDS011;640;48.310;11.728;2022-07-21T00:10:16;5.75;;;3.90;;
1294;SDS011;640;48.310;11.728;2022-07-21T00:12:44;6.57;;;4.10;;
1294;SDS011;640;48.310;11.728;2022-07-21T00:15:15;8.40;;;4.10;;
1294;SDS011;640;48.310;11.728;2022-07-21T00:17:45;6.15;;;3.92;;
1294;SDS011;640;48.310;11.728;2022-07-21T00:20:14;8.30;;;3.92;;
1294;SDS011;640;48.310;11.728;2022-07-21T00:22:44;8.30;;;3.75;;
1294;SDS011;640;48.310;11.728;2022-07-21T00:25:13;6.50;;;4.57;;
1294;SDS011;640;48.310;11.728;2022-07-21T00:27:41;9.65;;;4.47;;
1294;SDS011;640;48.310;11.728;2022-07-21T00:30:10;7.90;;;4.22;;
1294;SDS011;640;48.310;11.728;2022-07-21T00:32:41;10.93;;;4.50;;
1294;SDS011;640;48.310;11.728;2022-07-21T00:35:10;7.82;;;4.85;;
1294;SDS011;640;48.310;11.728;2022-07-21T00:37:39;7.73;;;4.70;;
1294;SDS011;640;48.310;11.728;2022-07-21T00:40:09;7.88;;;4.68;;
1294;SDS011;640;48.310;11.728;2022-07-21T00:42:38;8.13;;;4.65;;
1294;SDS011;640;48.310;11.728;2022-07-21T00:45:06;6.53;;;4.55;;
1294;SDS011;640;48.310;11.728;2022-07-21T00:47:36;7.38;;;4.93;;
1294;SDS011;640;48.310;11.728;2022-07-21T00:50:07;6.07;;;4.70;;
1294;SDS011;640;48.310;11.728;2022-07-21T00:52:37;6.72;;;4.88;;
1294;SDS011;640;48.310;11.728;2022-07-21T00:55:06;6.43;;;4.68;;
1294;SDS011;640;48.310;11.728;2022-07-21T00:57:37;6.75;;;4.38;;
1294;SDS011;640;48.310;11.728;2022-07-21T01:00:06;6.72;;;5.15;;
1294;SDS011;640;48.310;11.728;2022-07-21T01:02:37;8.68;;;4.90;;
1294;SDS011;640;48.310;11.728;2022-07-21T01:05:07;12.55;;;5.00;;
1294;SDS011;640;48.310;11.728;2022-07-21T01:07:39;6.60;;;4.70;;
1294;SDS011;640;48.310;11.728;2022-07-21T01:10:09;5.53;;;4.45;;
1294;SDS011;640;48.310;11.728;2022-07-21T01:12:38;9.52;;;5.00;;
1294;SDS011;640;48.310;11.728;2022-07-21T01:15:07;11.43;;;4.65;;
1294;SDS011;640;48.310;11.728;2022-07-21T01:17:37;5.45;;;4.35;;
1294;SDS011;640;48.310;11.728;2022-07-21T01:20:08;6.28;;;5.07;;
1294;SDS011;640;48.310;11.728;2022-07-21T01:22:40;6.07;;;4.82;;
1294;SDS011;640;48.310;11.728;2022-07-21T01:25:10;8.60;;;5.28;;
1294;SDS011;640;48.310;11.728;2022-07-21T01:27:39;6.13;;;5.18;;
1294;SDS011;640;48.310;11.728;2022-07-21T01:30:08;8.52;;;5.45;;
1294;SDS011;640;48.310;11.728;2022-07-21T01:32:37;7.93;;;5.38;;
1294;SDS011;640;48.310;11.728;2022-07-21T01:35:08;8.83;;;5.57;;
1294;SDS011;640;48.310;11.728;2022-07-21T01:37:38;9.38;;;5.80;;
1294;SDS011;640;48.310;11.728;2022-07-21T01:40:10;9.35;;;5.68;;
1294;SDS011;640;48.310;11.728;2022-07-21T01:42:56;12.85;;;6.00;;
1294;SDS011;640;48.310;11.728;2022-07-21T01:45:26;7.90;;;5.68;;
1294;SDS011;640;48.310;11.728;2022-07-21T01:47:55;7.90;;;5.82;;
1294;SDS011;640;48.310;11.728;2022-07-21T01:50:24;7.20;;;5.05;;
1294;SDS011;640;48.310;11.728;2022-07-21T01:52:56;9.05;;;5.75;;
1294;SDS011;640;48.310;11.728;2022-07-21T01:55:25;7.00;;;5.32;;
1294;SDS011;640;48.310;11.728;2022-07-21T01:57:55;7.70;;;5.22;;
1294;SDS011;640;48.310;11.728;2022-07-21T02:00:24;8.43;;;5.75;;
1294;SDS011;640;48.310;11.728;2022-07-21T02:02:52;7.13;;;5.32;;
1294;SDS011;640;48.310;11.728;2022-07-21T02:05:20;7.53;;;6.03;;
1294;SDS011;640;48.310;11.728;2022-07-21T02:07:50;10.13;;;5.68;;
1294;SDS011;640;48.310;11.728;2022-07-21T02:10:20;9.13;;;5.55;;
1294;SDS011;640;48.310;11.728;2022-07-21T02:12:48;7.18;;;5.65;;
1294;SDS011;640;48.310;11.728;2022-07-21T02:15:17;7.22;;;5.70;;
1294;SDS011;640;48.310;11.728;2022-07-21T02:17:45;7.78;;;6.10;;
1294;SDS011;640;48.310;11.728;2022-07-21T02:20:14;7.00;;;6.00;;
1294;SDS011;640;48.310;11.728;2022-07-21T02:22:42;8.32;;;5.68;;
1294;SDS011;640;48.310;11.728;2022-07-21T02:25:12;8.38;;;5.82;;
1294;SDS011;640;48.310;11.728;2022-07-21T02:27:43;6.30;;;5.70;;
1294;SDS011;640;48.310;11.728;2022-07-21T02:30:12;11.27;;;6.07;;
1294;SDS011;640;48.310;11.728;2022-07-21T02:32:41;9.17;;;5.97;;
1294;SDS011;640;48.310;11.728;2022-07-21T02:35:09;9.07;;;6.13;;
1294;SDS011;640;48.310;11.728;2022-07-21T02:37:38;9.13;;;6.20;;
1294;SDS011;640;48.310;11.728;2022-07-21T02:40:07;9.50;;;5.90;;
1294;SDS011;640;48.310;11.728;2022-07-21T02:42:36;7.20;;;5.78;;
1294;SDS011;640;48.310;11.728;2022-07-21T02:45:08;10.07;;;6.30;;
1294;SDS011;640;48.310;11.728;2022-07-21T02:47:50;9.02;;;6.53;;
1294;SDS011;640;48.310;11.728;2022-07-21T02:50:19;8.52;;;6.60;;
1294;SDS011;640;48.310;11.728;2022-07-21T02:52:48;9.15;;;6.32;;
1294;SDS011;640;48.310;11.728;2022-07-21T02:55:17;8.23;;;6.47;;
1294;SDS011;640;48.310;11.728;2022-07-21T02:57:45;8.27;;;6.60;;
1294;SDS011;640;48.310;11.728;2022-07-21T03:00:15;9.18;;;6.15;;
1294;SDS011;640;48.310;11.728;2022-07-21T03:02:44;8.88;;;6.78;;
1294;SDS011;640;48.310;11.728;2022-07-21T03:05:12;8.25;;;6.57;;
1294;SDS011;640;48.310;11.728;2022-07-21T03:07:40;7.40;;;6.57;;
1294;SDS011;640;48.310;11.728;2022-07-21T03:10:09;8.30;;;6.50;;
1294;SDS011;640;48.310;11.728;2022-07-21T03:12:37;10.57;;;6.80;;
1294;SDS011;640;48.310;11.728;2022-07-21T03:15:06;9.15;;;7.03;;
1294;SDS011;640;48.310;11.728;2022-07-21T03:17:37;9.80;;;6.70;;
1294;SDS011;640;48.310;11.728;2022-07-21T03:20:05;13.02;;;7.40;;
1294;SDS011;640;48.310;11.728;2022-07-21T03:22:34;8.95;;;7.00;;
1294;SDS011;640;48.310;11.728;2022-07-21T03:25:03;9.15;;;7.05;;
1294;SDS011;640;48.310;11.728;2022-07-21T03:27:32;10.82;;;6.50;;
1294;SDS011;640;48.310;11.728;2022-07-21T03:30:04;10.07;;;6.82;;
1294;SDS011;640;48.310;11.728;2022-07-21T03:32:34;8.93;;;6.68;;
1294;SDS011;640;48.310;11.728;2022-07-21T03:35:04;10.32;;;6.57;;
1294;SDS011;640;48.310;11.728;2022-07-21T03:37:39;8.02;;;7.07;;
1294;SDS011;640;48.310;11.728;2022-07-21T03:40:09;9.20;;;6.90;;
1294;SDS011;640;48.310;11.728;2022-07-21T03:42:38;10.60;;;7.40;;
1294;SDS011;640;48.310;11.728;2022-07-21T03:45:07;8.48;;;7.03;;
1294;SDS011;640;48.310;11.728;2022-07-21T03:47:36;9.05;;;6.82;;
1294;SDS011;640;48.310;11.728;2022-07-21T03:50:07;9.40;;;6.85;;
1294;SDS011;640;48.310;11.728;2022-07-21T03:52:36;9.70;;;6.78;;
1294;SDS011;640;48.310;11.728;2022-07-21T03:55:04;10.13;;;7.32;;
1294;SDS011;640;48.310;11.728;2022-07-21T03:57:42;7.93;;;6.47;;
1294;SDS011;640;48.310;11.728;2022-07-21T04:00:13;8.02;;;6.97;;
1294;SDS011;640;48.310;11.728;2022-07-21T04:02:44;9.98;;;7.50;;
1294;SDS011;640;48.310;11.728;2022-07-21T04:05:14;9.82;;;7.45;;
1294;SDS011;640;48.310;11.728;2022-07-21T04:10:12;8.98;;;7.55;;
1294;SDS011;640;48.310;11.728;2022-07-21T04:12:41;10.07;;;7.63;;
1294;SDS011;640;48.310;11.728;2022-07-21T04:15:10;9.38;;;7.05;;
1294;SDS011;640;48.310;11.728;2022-07-21T04:17:39;13.05;;;7.68;;
1294;SDS011;640;48.310;11.728;2022-07-21T04:20:08;9.25;;;7.43;;
1294;SDS011;640;48.310;11.728;2022-07-21T04:22:40;10.13;;;7.68;;
1294;SDS011;640;48.310;11.728;2022-07-21T04:27:37;10.88;;;8.55;;
1294;SDS011;640;48.310;11.728;2022-07-21T04:30:06;11.98;;;8.85;;
1294;SDS011;640;48.310;11.728;2022-07-21T04:32:36;13.77;;;9.13;;
1294;SDS011;640;48.310;11.728;2022-07-21T04:35:05;14.15;;;8.25;;
1294;SDS011;640;48.310;11.728;2022-07-21T04:37:34;12.25;;;9.18;;
1294;SDS011;640;48.310;11.728;2022-07-21T04:40:05;12.05;;;9.35;;
1294;SDS011;640;48.310;11.728;2022-07-21T04:42:35;12.18;;;9.43;;
1294;SDS011;640;48.310;11.728;2022-07-21T04:45:06;11.85;;;10.43;;
1294;SDS011;640;48.310;11.728;2022-07-21T04:50:09;14.07;;;11.18;;
1294;SDS011;640;48.310;11.728;2022-07-21T04:52:38;13.27;;;10.80;;
1294;SDS011;640;48.310;11.728;2022-07-21T04:55:09;13.73;;;11.25;;
1294;SDS011;640;48.310;11.728;2022-07-21T04:57:38;15.90;;;11.20;;
1294;SDS011;640;48.310;11.728;2022-07-21T05:00:07;13.55;;;10.80;;
1294;SDS011;640;48.310;11.728;2022-07-21T05:02:37;14.55;;;11.15;;
1294;SDS011;640;48.310;11.728;2022-07-21T05:05:06;14.32;;;11.80;;
1294;SDS011;640;48.310;11.728;2022-07-21T05:07:35;13.65;;;11.15;;
1294;SDS011;640;48.310;11.728;2022-07-21T05:10:04;15.38;;;11.90;;
1294;SDS011;640;48.310;11.728;2022-07-21T05:12:34;15.38;;;12.05;;
1294;SDS011;640;48.310;11.728;2022-07-21T05:15:03;15.57;;;11.70;;
1294;SDS011;640;48.310;11.728;2022-07-21T05:17:36;15.15;;;12.52;;
1294;SDS011;640;48.310;11.728;2022-07-21T05:20:05;15.10;;;12.38;;
1294;SDS011;640;48.310;11.728;2022-07-21T05:22:34;16.77;;;12.48;;
1294;SDS011;640;48.310;11.728;2022-07-21T05:25:03;15.93;;;12.60;;
1294;SDS011;640;48.310;11.728;2022-07-21T05:27:32;14.00;;;11.73;;
1294;SDS011;640;48.310;11.728;2022-07-21T05:30:02;14.55;;;13.02;;
1294;SDS011;640;48.310;11.728;2022-07-21T05:32:31;15.18;;;11.98;;
1294;SDS011;640;48.310;11.728;2022-07-21T05:34:59;16.73;;;11.15;;
1294;SDS011;640;48.310;11.728;2022-07-21T05:37:27;15.38;;;11.30;;
1294;SDS011;640;48.310;11.728;2022-07-21T05:39:56;14.23;;;10.90;;
1294;SDS011;640;48.310;11.728;2022-07-21T05:42:24;15.20;;;11.65;;
1294;SDS011;640;48.310;11.728;2022-07-21T05:44:52;14.35;;;11.20;;
1294;SDS011;640;48.310;11.728;2022-07-21T05:47:23;14.75;;;11.45;;
1294;SDS011;640;48.310;11.728;2022-07-21T05:49:51;16.15;;;11.45;;
1294;SDS011;640;48.310;11.728;2022-07-21T05:52:20;13.02;;;11.60;;
1294;SDS011;640;48.310;11.728;2022-07-21T05:54:48;16.10;;;11.45;;
1294;SDS011;640;48.310;11.728;2022-07-21T05:57:16;16.48;;;11.27;;
1294;SDS011;640;48.310;11.728;2022-07-21T05:59:45;13.70;;;11.52;;
1294;SDS011;640;48.310;11.728;2022-07-21T06:02:13;14.35;;;11.95;;
1294;SDS011;640;48.310;11.728;2022-07-21T06:04:43;13.50;;;11.57;;
1294;SDS011;640;48.310;11.728;2022-07-21T06:07:12;15.52;;;12.27;;
1294;SDS011;640;48.310;11.728;2022-07-21T06:09:40;13.27;;;11.50;;
1294;SDS011;640;48.310;11.728;2022-07-21T06:12:09;18.33;;;12.30;;
1294;SDS011;640;48.310;11.728;2022-07-21T06:14:37;14.95;;;11.93;;
1294;SDS011;640;48.310;11.728;2022-07-21T06:17:06;14.70;;;11.10;;
1294;SDS011;640;48.310;11.728;2022-07-21T06:19:34;13.05;;;11.25;;
1294;SDS011;640;48.310;11.728;2022-07-21T06:22:04;14.45;;;11.38;;
1294;SDS011;640;48.310;11.728;2022-07-21T06:24:32;12.88;;;11.00;;
1294;SDS011;640;48.310;11.728;2022-07-21T06:27:01;14.00;;;10.85;;
1294;SDS011;640;48.310;11.728;2022-07-21T06:29:32;16.20;;;10.93;;
1294;SDS011;640;48.310;11.728;2022-07-21T06:32:00;13.57;;;10.73;;
1294;SDS011;640;48.310;11.728;2022-07-21T06:34:29;14.05;;;11.20;;
1294;SDS011;640;48.310;11.728;2022-07-21T06:36:57;13.60;;;11.15;;
1294;SDS011;640;48.310;11.728;2022-07-21T06:39:27;13.30;;;11.10;;
1294;SDS011;640;48.310;11.728;2022-07-21T06:41:55;13.63;;;10.65;;
1294;SDS011;640;48.310;11.728;2022-07-21T06:44:23;14.18;;;11.48;;
1294;SDS011;640;48.310;11.728;2022-07-21T06:46:52;11.38;;;9.80;;
1294;SDS011;640;48.310;11.728;2022-07-21T06:49:21;14.88;;;10.57;;
1294;SDS011;640;48.310;11.728;2022-07-21T06:51:49;15.25;;;11.27;;
1294;SDS011;640;48.310;11.728;2022-07-21T06:54:18;15.80;;;11.18;;
1294;SDS011;640;48.310;11.728;2022-07-21T06:56:47;14.15;;;10.95;;
1294;SDS011;640;48.310;11.728;2022-07-21T06:59:16;14.70;;;12.02;;
1294;SDS011;640;48.310;11.728;2022-07-21T07:01:44;15.32;;;12.02;;
1294;SDS011;640;48.310;11.728;2022-07-21T07:04:13;15.68;;;11.70;;
1294;SDS011;640;48.310;11.728;2022-07-21T07:06:42;16.00;;;11.20;;
1294;SDS011;640;48.310;11.728;2022-07-21T07:09:10;16.77;;;11.40;;
1294;SDS011;640;48.310;11.728;2022-07-21T07:11:39;13.77;;;11.77;;
1294;SDS011;640;48.310;11.728;2022-07-21T07:14:28;13.65;;;11.30;;
1294;SDS011;640;48.310;11.728;2022-07-21T07:16:57;14.43;;;11.40;;
1294;SDS011;640;48.310;11.728;2022-07-21T07:19:25;14.27;;;11.35;;
1294;SDS011;640;48.310;11.728;2022-07-21T07:21:54;13.70;;;11.27;;
1294;SDS011;640;48.310;11.728;2022-07-21T07:24:22;14.10;;;11.63;;
1294;SDS011;640;48.310;11.728;2022-07-21T07:26:50;15.63;;;11.60;;
1294;SDS011;640;48.310;11.728;2022-07-21T07:29:19;13.93;;;11.00;;
1294;SDS011;640;48.310;11.728;2022-07-21T07:31:48;15.98;;;11.38;;
1294;SDS011;640;48.310;11.728;2022-07-21T07:34:17;14.25;;;11.43;;
1294;SDS011;640;48.310;11.728;2022-07-21T07:36:45;13.48;;;11.90;;
1294;SDS011;640;48.310;11.728;2022-07-21T07:39:14;15.48;;;11.88;;
1294;SDS011;640;48.310;11.728;2022-07-21T07:41:43;14.65;;;12.18;;
1294;SDS011;640;48.310;11.728;2022-07-21T07:44:11;17.08;;;11.38;;
1294;SDS011;640;48.310;11.728;2022-07-21T07:46:39;15.18;;;11.63;;
1294;SDS011;640;48.310;11.728;2022-07-21T07:49:09;13.30;;;11.38;;
1294;SDS011;640;48.310;11.728;2022-07-21T07:51:44;14.98;;;10.95;;
1294;SDS011;640;48.310;11.728;2022-07-21T07:54:13;13.50;;;10.95;;
1294;SDS011;640;48.310;11.728;2022-07-21T07:56:42;15.10;;;12.05;;
1294;SDS011;640;48.310;11.728;2022-07-21T07:59:10;13.50;;;11.63;;
1294;SDS011;640;48.310;11.728;2022-07-21T08:01:38;14.77;;;11.43;;
1294;SDS011;640;48.310;11.728;2022-07-21T08:04:07;12.93;;;10.93;;
1294;SDS011;640;48.310;11.728;2022-07-21T08:06:37;12.65;;;11.35;;
1294;SDS011;640;48.310;11.728;2022-07-21T08:09:05;13.93;;;11.70;;
1294;SDS011;640;48.310;11.728;2022-07-21T08:11:34;13.48;;;10.95;;
1294;SDS011;640;48.310;11.728;2022-07-21T08:14:02;11.98;;;10.55;;
1294;SDS011;640;48.310;11.728;2022-07-21T08:16:31;13.43;;;11.32;;
1294;SDS011;640;48.310;11.728;2022-07-21T08:18:59;14.98;;;11.82;;
1294;SDS011;640;48.310;11.728;2022-07-21T08:21:28;12.90;;;11.05;;
1294;SDS011;640;48.310;11.728;2022-07-21T08:24:19;13.73;;;11.73;;
1294;SDS011;640;48.310;11.728;2022-07-21T08:26:47;13.02;;;11.13;;
1294;SDS011;640;48.310;11.728;2022-07-21T08:29:15;12.48;;;11.15;;
1294;SDS011;640;48.310;11.728;2022-07-21T08:31:44;13.63;;;11.05;;
1294;SDS011;640;48.310;11.728;2022-07-21T08:34:12;11.93;;;10.73;;
1294;SDS011;640;48.310;11.728;2022-07-21T08:36:41;14.18;;;11.25;;
1294;SDS011;640;48.310;11.728;2022-07-21T08:39:09;16.17;;;11.70;;
1294;SDS011;640;48.310;11.728;2022-07-21T08:41:39;14.68;;;11.10;;
1294;SDS011;640;48.310;11.728;2022-07-21T08:44:08;12.20;;;10.93;;
1294;SDS011;640;48.310;11.728;2022-07-21T08:46:38;13.23;;;11.93;;
1294;SDS011;640;48.310;11.728;2022-07-21T08:49:09;13.02;;;11.73;;
1294;SDS011;640;48.310;11.728;2022-07-21T08:51:38;13.32;;;11.93;;
1294;SDS011;640;48.310;11.728;2022-07-21T08:54:07;12.88;;;11.45;;
1294;SDS011;640;48.310;11.728;2022-07-21T08:56:35;14.65;;;12.68;;
1294;SDS011;640;48.310;11.728;2022-07-21T08:59:05;14.55;;;12.00;;
1294;SDS011;640;48.310;11.728;2022-07-21T09:01:34;16.63;;;11.75;;
1294;SDS011;640;48.310;11.728;2022-07-21T09:04:18;14.63;;;11.93;;
1294;SDS011;640;48.310;11.728;2022-07-21T09:06:52;11.93;;;10.20;;
1294;SDS011;640;48.310;11.728;2022-07-21T09:09:22;12.27;;;10.98;;
1294;SDS011;640;48.310;11.728;2022-07-21T09:11:51;14.02;;;11.48;;
1294;SDS011;640;48.310;11.728;2022-07-21T09:14:23;11.32;;;10.23;;
1294;SDS011;640;48.310;11.728;2022-07-21T09:16:53;11.70;;;10.50;;
1294;SDS011;640;48.310;11.728;2022-07-21T09:19:30;12.20;;;10.90;;
1294;SDS011;640;48.310;11.728;2022-07-21T09:22:00;12.85;;;10.45;;
1294;SDS011;640;48.310;11.728;2022-07-21T09:24:31;11.57;;;9.75;;
1294;SDS011;640;48.310;11.728;2022-07-21T09:27:06;11.90;;;9.95;;
1294;SDS011;640;48.310;11.728;2022-07-21T09:29:41;14.20;;;9.05;;
1294;SDS011;640;48.310;11.728;2022-07-21T09:32:20;11.10;;;9.60;;
1294;SDS011;640;48.310;11.728;2022-07-21T09:34:51;12.32;;;10.05;;
1294;SDS011;640;48.310;11.728;2022-07-21T09:37:21;11.50;;;9.98;;
1294;SDS011;640;48.310;11.728;2022-07-21T09:39:50;10.90;;;9.32;;
1294;SDS011;640;48.310;11.728;2022-07-21T09:42:21;11.32;;;9.52;;
1294;SDS011;640;48.310;11.728;2022-07-21T09:44:56;12.25;;;9.75;;
1294;SDS011;640;48.310;11.728;2022-07-21T09:47:27;12.73;;;9.95;;
1294;SDS011;640;48.310;11.728;2022-07-21T09:49:59;11.32;;;10.07;;
1294;SDS011;640;48.310;11.728;2022-07-21T09:52:48;11.48;;;9.90;;
1294;SDS011;640;48.310;11.728;2022-07-21T09:55:21;10.88;;;9.65;;
1294;SDS011;640;48.310;11.728;2022-07-21T09:57:50;13.20;;;10.45;;
1294;SDS011;640;48.310;11.728;2022-07-21T10:00:20;10.60;;;9.50;;
1294;SDS011;640;48.310;11.728;2022-07-21T10:02:48;13.45;;;10.60;;
1294;SDS011;640;48.310;11.728;2022-07-21T10:05:18;12.90;;;10.45;;
1294;SDS011;640;48.310;11.728;2022-07-21T10:07:57;11.75;;;10.48;;
1294;SDS011;640;48.310;11.728;2022-07-21T10:10:25;14.75;;;11.63;;
1294;SDS011;640;48.310;11.728;2022-07-21T10:13:13;14.07;;;11.75;;
1294;SDS011;640;48.310;11.728;2022-07-21T10:15:45;15.15;;;12.68;;
1294;SDS011;640;48.310;11.728;2022-07-21T10:18:14;16.40;;;11.57;;
1294;SDS011;640;48.310;11.728;2022-07-21T10:20:59;12.98;;;11.55;;
1294;SDS011;640;48.310;11.728;2022-07-21T10:23:34;14.10;;;11.75;;
1294;SDS011;640;48.310;11.728;2022-07-21T10:26:04;13.25;;;11.73;;
1294;SDS011;640;48.310;11.728;2022-07-21T10:28:33;15.25;;;12.05;;
1294;SDS011;640;48.310;11.728;2022-07-21T10:31:13;13.75;;;12.25;;
1294;SDS011;640;48.310;11.728;2022-07-21T10:33:56;13.73;;;12.07;;
1294;SDS011;640;48.310;11.728;2022-07-21T10:36:44;14.93;;;12.40;;
1294;SDS011;640;48.310;11.728;2022-07-21T10:39:17;13.50;;;12.10;;
1294;SDS011;640;48.310;11.728;2022-07-21T10:41:56;13.57;;;12.07;;
1294;SDS011;640;48.310;11.728;2022-07-21T10:44:37;13.57;;;12.18;;
1294;SDS011;640;48.310;11.728;2022-07-21T10:47:08;13.30;;;11.88;;
1294;SDS011;640;48.310;11.728;2022-07-21T10:49:50;17.77;;;12.95;;
1294;SDS011;640;48.310;11.728;2022-07-21T10:55:28;13.60;;;12.20;;
1294;SDS011;640;48.310;11.728;2022-07-21T11:00:47;16.85;;;12.18;;
1294;SDS011;640;48.310;11.728;2022-07-21T11:03:24;19.88;;;13.27;;
1294;SDS011;640;48.310;11.728;2022-07-21T11:06:18;15.00;;;13.38;;
1294;SDS011;640;48.310;11.728;2022-07-21T11:09:05;18.58;;;14.32;;
1294;SDS011;640;48.310;11.728;2022-07-21T11:11:38;17.70;;;14.13;;
1294;SDS011;640;48.310;11.728;2022-07-21T11:14:10;16.42;;;14.05;;
1294;SDS011;640;48.310;11.728;2022-07-21T11:19:38;18.25;;;13.88;;
1294;SDS011;640;48.310;11.728;2022-07-21T11:22:11;16.13;;;13.75;;
1294;SDS011;640;48.310;11.728;2022-07-21T11:24:42;17.25;;;15.15;;
1294;SDS011;640;48.310;11.728;2022-07-21T11:27:12;16.75;;;13.90;;
1294;SDS011;640;48.310;11.728;2022-07-21T11:29:42;18.20;;;14.07;;
1294;SDS011;640;48.310;11.728;2022-07-21T11:32:12;18.48;;;13.82;;
1294;SDS011;640;48.310;11.728;2022-07-21T11:37:15;17.85;;;13.65;;
1294;SDS011;640;48.310;11.728;2022-07-21T11:40:03;15.90;;;12.80;;
1294;SDS011;640;48.310;11.728;2022-07-21T11:42:34;17.27;;;13.15;;
1294;SDS011;640;48.310;11.728;2022-07-21T11:45:03;15.80;;;12.20;;
1294;SDS011;640;48.310;11.728;2022-07-21T11:47:33;13.13;;;10.73;;
1294;SDS011;640;48.310;11.728;2022-07-21T11:50:04;14.05;;;11.32;;
1294;SDS011;640;48.310;11.728;2022-07-21T11:52:35;12.60;;;11.35;;
1294;SDS011;640;48.310;11.728;2022-07-21T11:55:05;14.63;;;11.65;;
1294;SDS011;640;48.310;11.728;2022-07-21T11:57:35;15.10;;;12.27;;
1294;SDS011;640;48.310;11.728;2022-07-21T12:00:04;14.38;;;11.80;;
1294;SDS011;640;48.310;11.728;2022-07-21T12:02:34;13.77;;;12.35;;
1294;SDS011;640;48.310;11.728;2022-07-21T12:05:06;16.92;;;12.45;;
1294;SDS011;640;48.310;11.728;2022-07-21T12:07:36;19.40;;;12.82;;
1294;SDS011;640;48.310;11.728;2022-07-21T12:12:36;14.77;;;11.20;;
1294;SDS011;640;48.310;11.728;2022-07-21T12:15:09;12.45;;;10.85;;
1294;SDS011;640;48.310;11.728;2022-07-21T12:17:40;15.23;;;12.65;;
1294;SDS011;640;48.310;11.728;2022-07-21T12:20:13;14.13;;;12.25;;
1294;SDS011;640;48.310;11.728;2022-07-21T12:22:42;15.23;;;11.98;;
1294;SDS011;640;48.310;11.728;2022-07-21T12:25:14;13.85;;;11.70;;
1294;SDS011;640;48.310;11.728;2022-07-21T12:27:43;15.50;;;12.60;;
1294;SDS011;640;48.310;11.728;2022-07-21T12:30:30;17.65;;;12.48;;
1294;SDS011;640;48.310;11.728;2022-07-21T12:33:01;14.90;;;12.20;;
1294;SDS011;640;48.310;11.728;2022-07-21T12:35:33;14.45;;;12.70;;
1294;SDS011;640;48.310;11.728;2022-07-21T12:38:03;15.85;;;13.40;;
1294;SDS011;640;48.310;11.728;2022-07-21T12:40:34;14.52;;;12.93;;
1294;SDS011;640;48.310;11.728;2022-07-21T12:43:12;16.45;;;13.88;;
1294;SDS011;640;48.310;11.728;2022-07-21T12:45:46;14.90;;;13.30;;
1294;SDS011;640;48.310;11.728;2022-07-21T12:48:20;14.55;;;12.95;;
1294;SDS011;640;48.310;11.728;2022-07-21T12:50:58;14.48;;;12.98;;
1294;SDS011;640;48.310;11.728;2022-07-21T12:53:29;14.50;;;13.00;;
1294;SDS011;640;48.310;11.728;2022-07-21T12:55:57;15.73;;;12.45;;
1294;SDS011;640;48.310;11.728;2022-07-21T12:58:26;15.38;;;13.77;;
1294;SDS011;640;48.310;11.728;2022-07-21T13:00:55;13.82;;;12.43;;
1294;SDS011;640;48.310;11.728;2022-07-21T13:03:23;13.90;;;12.45;;
1294;SDS011;640;48.310;11.728;2022-07-21T13:05:59;14.73;;;12.32;;
1294;SDS011;640;48.310;11.728;2022-07-21T13:08:28;13.45;;;12.15;;
1294;SDS011;640;48.310;11.728;2022-07-21T13:10:57;15.52;;;12.40;;
1294;SDS011;640;48.310;11.728;2022-07-21T13:13:25;13.25;;;11.63;;
1294;SDS011;640;48.310;11.728;2022-07-21T13:15:54;14.47;;;11.60;;
1294;SDS011;640;48.310;11.728;2022-07-21T13:18:23;15.68;;;14.00;;
1294;SDS011;640;48.310;11.728;2022-07-21T13:20:52;15.27;;;13.60;;
1294;SDS011;640;48.310;11.728;2022-07-21T13:23:22;17.25;;;13.40;;
1294;SDS011;640;48.310;11.728;2022-07-21T13:28:30;13.68;;;12.38;;
1294;SDS011;640;48.310;11.728;2022-07-21T13:31:02;15.05;;;12.90;;
1294;SDS011;640;48.310;11.728;2022-07-21T13:33:31;14.25;;;12.15;;
1294;SDS011;640;48.310;11.728;2022-07-21T13:36:00;14.48;;;12.90;;
1294;SDS011;640;48.310;11.728;2022-07-21T13:38:29;14.00;;;12.60;;
1294;SDS011;640;48.310;11.728;2022-07-21T13:40:58;13.55;;;12.10;;
1294;SDS011;640;48.310;11.728;2022-07-21T13:43:46;14.15;;;12.38;;
1294;SDS011;640;48.310;11.728;2022-07-21T13:46:15;14.32;;;12.25;;
1294;SDS011;640;48.310;11.728;2022-07-21T13:48:43;14.90;;;12.38;;
1294;SDS011;640;48.310;11.728;2022-07-21T13:51:12;12.85;;;11.55;;
1294;SDS011;640;48.310;11.728;2022-07-21T13:53:44;15.18;;;12.27;;
1294;SDS011;640;48.310;11.728;2022-07-21T13:56:14;15.18;;;12.25;;
1294;SDS011;640;48.310;11.728;2022-07-21T14:01:12;14.10;;;11.95;;
1294;SDS011;640;48.310;11.728;2022-07-21T14:03:42;13.05;;;11.75;;
1294;SDS011;640;48.310;11.728;2022-07-21T14:06:11;13.68;;;12.27;;
1294;SDS011;640;48.310;11.728;2022-07-21T14:08:39;13.98;;;12.40;;
1294;SDS011;640;48.310;11.728;2022-07-21T14:11:09;14.10;;;11.30;;
1294;SDS011;640;48.310;11.728;2022-07-21T14:13:40;13.30;;;11.43;;
1294;SDS011;640;48.310;11.728;2022-07-21T14:16:15;14.43;;;11.90;;
1294;SDS011;640;48.310;11.728;2022-07-21T14:18:43;13.30;;;11.73;;
1294;SDS011;640;48.310;11.728;2022-07-21T14:21:12;13.32;;;11.90;;
1294;SDS011;640;48.310;11.728;2022-07-21T14:23:40;13.32;;;11.93;;
1294;SDS011;640;48.310;11.728;2022-07-21T14:26:10;14.13;;;12.73;;
1294;SDS011;640;48.310;11.728;2022-07-21T14:31:07;14.25;;;12.02;;
1294;SDS011;640;48.310;11.728;2022-07-21T14:33:35;13.48;;;11.68;;
1294;SDS011;640;48.310;11.728;2022-07-21T14:36:04;15.02;;;11.80;;
1294;SDS011;640;48.310;11.728;2022-07-21T14:38:32;15.50;;;11.85;;
1294;SDS011;640;48.310;11.728;2022-07-21T14:41:01;14.75;;;12.02;;
1294;SDS011;640;48.310;11.728;2022-07-21T14:43:31;13.25;;;11.48;;
1294;SDS011;640;48.310;11.728;2022-07-21T14:45:59;13.43;;;11.13;;
1294;SDS011;640;48.310;11.728;2022-07-21T14:48:28;12.88;;;11.50;;
1294;SDS011;640;48.310;11.728;2022-07-21T14:50:56;13.50;;;12.10;;
1294;SDS011;640;48.310;11.728;2022-07-21T14:53:25;16.13;;;12.05;;
1294;SDS011;640;48.310;11.728;2022-07-21T14:55:54;13.53;;;11.30;;
1294;SDS011;640;48.310;11.728;2022-07-21T14:58:22;13.70;;;12.35;;
1294;SDS011;640;48.310;11.728;2022-07-21T15:00:52;14.90;;;11.52;;
1294;SDS011;640;48.310;11.728;2022-07-21T15:03:21;13.77;;;11.60;;
1294;SDS011;640;48.310;11.728;2022-07-21T15:05:49;15.55;;;12.30;;
1294;SDS011;640;48.310;11.728;2022-07-21T15:08:18;13.45;;;11.85;;
1294;SDS011;640;48.310;11.728;2022-07-21T15:10:46;13.32;;;11.98;;
1294;SDS011;640;48.310;11.728;2022-07-21T15:13:16;15.77;;;12.27;;
1294;SDS011;640;48.310;11.728;2022-07-21T15:15:44;15.55;;;12.15;;
1294;SDS011;640;48.310;11.728;2022-07-21T15:18:15;14.23;;;11.85;;
1294;SDS011;640;48.310;11.728;2022-07-21T15:20:44;14.80;;;12.38;;
1294;SDS011;640;48.310;11.728;2022-07-21T15:23:12;14.63;;;11.90;;
1294;SDS011;640;48.310;11.728;2022-07-21T15:25:41;13.77;;;11.10;;
1294;SDS011;640;48.310;11.728;2022-07-21T15:28:09;12.93;;;11.57;;
1294;SDS011;640;48.310;11.728;2022-07-21T15:30:38;15.73;;;12.70;;
1294;SDS011;640;48.310;11.728;2022-07-21T15:33:06;14.35;;;12.43;;
1294;SDS011;640;48.310;11.728;2022-07-21T15:35:36;14.27;;;12.25;;
1294;SDS011;640;48.310;11.728;2022-07-21T15:40:39;13.35;;;11.82;;
1294;SDS011;640;48.310;11.728;2022-07-21T15:43:07;12.98;;;11.57;;
1294;SDS011;640;48.310;11.728;2022-07-21T15:45:36;13.35;;;11.85;;